Latest Weather Observations for Sellicks Hill

IDS60801

Issued at 10:31 am CST Friday 31 July 2015 (issued every 30 minutes, with the page automatically refreshed every 10 minutes)

About weather observations | Map of weather stations | Latest weather observations for SA | Other Formats
Station Details ID: 023886 Name: MOUNT TERRIBLE RADAR Lat: -35.33 Lon: 138.50 Height: 385.7 m
Data from the previous 72 hours. | See also: Recent months for locations in South Australia
Date/Time
CST
Temp
°C
App
Temp
°C
Dew
Point
Rel
Hum
%
Delta-T
°C
Wind Press
QNH
hPa
Press
MSL
hPa
Rain
since 9 am
mm
Dir
 
Spd
km/h
Gust
km/h
Spd
kts
Gust
kts
31/10:30am - - - - - NNW 15 20 8 11 - - -
31/10:00am - - - - - NNW 13 22 7 12 - - -
31/09:30am - - - - - NNW 11 20 6 11 - - -
31/09:00am - - - - - NNW 11 19 6 10 - - -
31/08:30am - - - - - N 7 13 4 7 - - -
31/08:00am - - - - - NNE 4 7 2 4 - - -
31/07:30am - - - - - NNE 4 7 2 4 - - -
31/07:00am - - - - - CALM 0 0 0 0 - - -
31/06:30am - - - - - CALM 0 0 0 0 - - -
31/06:00am - - - - - CALM 0 2 0 1 - - -
31/05:30am - - - - - E 2 4 1 2 - - -
31/05:00am - - - - - ESE 6 7 3 4 - - -
31/04:30am - - - - - SE 6 6 3 3 - - -
31/04:00am - - - - - SE 6 7 3 4 - - -
31/03:30am - - - - - SSE 7 9 4 5 - - -
31/03:00am - - - - - S 7 9 4 5 - - -
31/02:30am - - - - - S 9 11 5 6 - - -
31/02:00am - - - - - S 11 13 6 7 - - -
31/01:30am - - - - - S 13 13 7 7 - - -
31/01:00am - - - - - S 11 13 6 7 - - -
31/12:30am - - - - - S 13 15 7 8 - - -
31/12:00am - - - - - S 15 17 8 9 - - -
 
Date/Time
CST
Temp
°C
App
Temp
°C
Dew
Point
Rel
Hum
%
Delta-T
°C
Wind Press
QNH
hPa
Press
MSL
hPa
Rain
since 9 am
mm
Dir
 
Spd
km/h
Gust
km/h
Spd
kts
Gust
kts
30/11:30pm - - - - - SSE 11 15 6 8 - - -
30/11:00pm - - - - - S 15 19 8 10 - - -
30/10:30pm - - - - - S 11 15 6 8 - - -
30/10:00pm - - - - - S 19 22 10 12 - - -
30/09:30pm - - - - - S 22 26 12 14 - - -
30/09:00pm - - - - - S 17 22 9 12 - - -
30/08:30pm - - - - - S 19 24 10 13 - - -
30/08:00pm - - - - - S 11 19 6 10 - - -
30/07:30pm - - - - - SSW 11 19 6 10 - - -
30/07:00pm - - - - - SSW 9 17 5 9 - - -
30/06:30pm - - - - - SSW 11 19 6 10 - - -
30/06:00pm - - - - - SSW 13 24 7 13 - - -
30/05:30pm - - - - - SW 17 35 9 19 - - -
30/05:00pm - - - - - NW 11 19 6 10 - - -
30/04:30pm - - - - - NNW 11 20 6 11 - - -
30/04:00pm - - - - - NNW 13 22 7 12 - - -
30/03:30pm - - - - - NW 17 32 9 17 - - -
30/03:00pm - - - - - NW 17 28 9 15 - - -
30/02:30pm - - - - - NW 15 30 8 16 - - -
30/02:00pm - - - - - NW 19 32 10 17 - - -
30/01:30pm - - - - - NW 20 39 11 21 - - -
30/01:00pm - - - - - NNW 26 43 14 23 - - -
30/12:30pm - - - - - NNW 26 41 14 22 - - -
30/12:15pm - - - - - NNW 28 48 15 26 - - -
30/12:00pm - - - - - NNW 26 48 14 26 - - -
30/11:54am - - - - - NNW 28 48 15 26 - - -
30/11:30am - - - - - NNW 26 39 14 21 - - -
30/11:00am - - - - - NNW 28 50 15 27 - - -
30/10:30am - - - - - NNW 28 46 15 25 - - -
30/10:00am - - - - - NNW 30 56 16 30 - - -
30/09:35am - - - - - NNW 30 54 16 29 - - -
30/09:30am - - - - - NNW 28 43 15 23 - - -
30/09:14am - - - - - NNW 28 54 15 29 - - -
30/09:00am - - - - - NNW 26 43 14 23 - - -
30/08:30am - - - - - NNW 20 35 11 19 - - -
30/08:00am - - - - - NNW 19 33 10 18 - - -
30/07:30am - - - - - NNW 22 37 12 20 - - -
30/07:00am - - - - - NNW 24 44 13 24 - - -
30/06:30am - - - - - NNW 22 37 12 20 - - -
30/06:00am - - - - - NNW 20 35 11 19 - - -
30/05:30am - - - - - NNW 17 32 9 17 - - -
30/05:00am - - - - - N 17 26 9 14 - - -
30/04:30am - - - - - N 17 33 9 18 - - -
30/04:00am - - - - - N 15 26 8 14 - - -
30/03:30am - - - - - NNW 17 33 9 18 - - -
30/03:00am - - - - - NNW 17 28 9 15 - - -
30/02:30am - - - - - NNW 17 28 9 15 - - -
30/02:00am - - - - - NNW 19 32 10 17 - - -
30/01:30am - - - - - NNW 19 37 10 20 - - -
30/01:00am - - - - - NNW 24 37 13 20 - - -
30/12:30am - - - - - NNW 22 33 12 18 - - -
30/12:00am - - - - - NNW 19 30 10 16 - - -
 
Date/Time
CST
Temp
°C
App
Temp
°C
Dew
Point
Rel
Hum
%
Delta-T
°C
Wind Press
QNH
hPa
Press
MSL
hPa
Rain
since 9 am
mm
Dir
 
Spd
km/h
Gust
km/h
Spd
kts
Gust
kts
29/11:30pm - - - - - NNW 19 28 10 15 - - -
29/11:00pm - - - - - NNW 17 26 9 14 - - -
29/10:30pm - - - - - NNW 19 35 10 19 - - -
29/10:00pm - - - - - NNW 19 32 10 17 - - -
29/09:30pm - - - - - NNW 17 28 9 15 - - -
29/09:00pm - - - - - NNW 17 24 9 13 - - -
29/08:30pm - - - - - NNW 17 28 9 15 - - -
29/08:00pm - - - - - NNW 15 26 8 14 - - -
29/07:30pm - - - - - NNW 19 28 10 15 - - -
29/07:00pm - - - - - NNW 19 32 10 17 - - -
29/06:30pm - - - - - NNW 15 26 8 14 - - -
29/06:00pm - - - - - NNW 19 30 10 16 - - -
29/05:30pm - - - - - NNW 17 26 9 14 - - -
29/05:00pm - - - - - NNW 15 26 8 14 - - -
29/04:30pm - - - - - NNW 17 28 9 15 - - -
29/04:00pm - - - - - NNW 20 33 11 18 - - -
29/03:30pm - - - - - NNW 13 24 7 13 - - -
29/03:00pm - - - - - NNW 17 28 9 15 - - -
29/02:30pm - - - - - NNW 17 28 9 15 - - -
29/02:00pm - - - - - NNW 20 32 11 17 - - -
29/01:30pm - - - - - NNW 19 28 10 15 - - -
29/01:00pm - - - - - NNW 22 37 12 20 - - -
29/12:30pm - - - - - NNW 20 32 11 17 - - -
29/12:00pm - - - - - NNW 19 33 10 18 - - -
29/11:30am - - - - - NNW 15 24 8 13 - - -
29/11:00am - - - - - NNW 13 19 7 10 - - -
29/10:30am - - - - - NNW 15 26 8 14 - - -
29/10:00am - - - - - NNW 13 19 7 10 - - -
29/09:30am - - - - - N 11 20 6 11 - - -
29/09:00am - - - - - NNW 11 19 6 10 - - -
29/08:30am - - - - - NNW 13 20 7 11 - - -
29/08:00am - - - - - NNW 13 24 7 13 - - -
29/07:30am - - - - - NNW 15 22 8 12 - - -
29/07:00am - - - - - NNW 13 22 7 12 - - -
29/06:30am - - - - - N 15 26 8 14 - - -
29/06:00am - - - - - N 13 26 7 14 - - -
29/05:30am - - - - - NNW 15 26 8 14 - - -
29/05:00am - - - - - NNW 13 20 7 11 - - -
29/04:30am - - - - - NNW 11 20 6 11 - - -
29/04:00am - - - - - N 13 22 7 12 - - -
29/03:30am - - - - - N 15 30 8 16 - - -
29/03:00am - - - - - N 9 24 5 13 - - -
29/02:30am - - - - - N 9 19 5 10 - - -
29/02:00am - - - - - N 9 20 5 11 - - -
29/01:30am - - - - - N 9 24 5 13 - - -
29/01:00am - - - - - N 11 20 6 11 - - -
29/12:30am - - - - - NNE 9 22 5 12 - - -
29/12:00am - - - - - NNE 9 13 5 7 - - -
 
Date/Time
CST
Temp
°C
App
Temp
°C
Dew
Point
Rel
Hum
%
Delta-T
°C
Wind Press
QNH
hPa
Press
MSL
hPa
Rain
since 9 am
mm
Dir
 
Spd
km/h
Gust
km/h
Spd
kts
Gust
kts
28/11:30pm - - - - - NNE 7 19 4 10 - - -
28/11:00pm - - - - - NNE 6 11 3 6 - - -
28/10:30pm - - - - - NNE 6 11 3 6 - - -
28/10:00pm - - - - - NE 4 4 2 2 - - -
28/09:30pm - - - - - N 2 4 1 2 - - -
28/09:00pm - - - - - CALM 0 0 0 0 - - -
28/08:30pm - - - - - CALM 0 0 0 0 - - -
28/08:00pm - - - - - N 4 6 2 3 - - -
28/07:30pm - - - - - CALM 0 0 0 0 - - -
28/07:00pm - - - - - CALM 0 0 0 0 - - -
28/06:30pm - - - - - NNW 2 4 1 2 - - -
28/06:00pm - - - - - N 4 6 2 3 - - -
28/05:30pm - - - - - N 6 7 3 4 - - -
28/05:00pm - - - - - NNW 4 7 2 4 - - -
28/04:30pm - - - - - NNW 6 9 3 5 - - -
28/04:00pm - - - - - NW 4 7 2 4 - - -
28/03:30pm - - - - - NNW 6 11 3 6 - - -
28/03:00pm - - - - - NNW 7 11 4 6 - - -
28/02:30pm - - - - - NNW 7 17 4 9 - - -
28/02:00pm - - - - - NNW 6 13 3 7 - - -
28/01:30pm - - - - - NNW 9 19 5 10 - - -
28/01:00pm - - - - - NNW 7 15 4 8 - - -
28/12:30pm - - - - - NNW 7 13 4 7 - - -
28/12:00pm - - - - - NNW 9 13 5 7 - - -
28/11:30am - - - - - NNW 9 15 5 8 - - -
28/11:00am - - - - - NNW 7 9 4 5 - - -

Other Formats:

Comma delimited format used in spreadsheet applications
http://www.bom.gov.au/fwo/IDS60801/IDS60801.95679.axf

JavaScript Object Notation format (JSON) in row-major order
http://www.bom.gov.au/fwo/IDS60801/IDS60801.95679.json